createdAt,value
2019-05-12T00:01:52.541Z,9.18
2019-05-12T00:04:19.541Z,9.13
2019-05-12T00:06:47.902Z,9.09
2019-05-12T00:09:15.022Z,9.03
2019-05-12T00:11:42.052Z,8.94
2019-05-12T00:14:09.112Z,8.88
2019-05-12T00:16:38.382Z,8.87
2019-05-12T00:19:05.062Z,8.87
2019-05-12T00:21:32.116Z,8.83
2019-05-12T00:24:11.432Z,8.83
2019-05-12T00:26:39.006Z,8.85
2019-05-12T00:29:07.712Z,8.87
2019-05-12T00:31:34.946Z,8.84
2019-05-12T00:34:01.982Z,8.81
2019-05-12T00:36:29.347Z,8.81
2019-05-12T00:38:57.991Z,8.76
2019-05-12T00:41:25.162Z,8.81
2019-05-12T00:43:52.210Z,8.63
2019-05-12T00:46:19.218Z,8.63
2019-05-12T00:48:48.216Z,8.84
2019-05-12T00:51:15.172Z,8.77
2019-05-12T00:53:43.518Z,8.79
2019-05-12T00:56:10.594Z,8.83
2019-05-12T00:58:38.249Z,8.94
2019-05-12T01:01:07.969Z,8.82
2019-05-12T01:03:34.268Z,8.86
2019-05-12T01:06:01.305Z,8.83
2019-05-12T01:08:28.342Z,8.86
2019-05-12T01:10:55.343Z,8.81
2019-05-12T01:13:22.381Z,8.81
2019-05-12T01:15:49.409Z,8.84
2019-05-12T01:18:18.125Z,8.83
2019-05-12T01:20:47.791Z,8.83
2019-05-12T01:23:14.429Z,8.88
2019-05-12T01:25:41.441Z,8.95
2019-05-12T01:28:08.600Z,8.90
2019-05-12T01:30:35.677Z,8.85
2019-05-12T01:33:02.734Z,8.95
2019-05-12T01:35:29.765Z,8.91
2019-05-12T01:38:01.169Z,8.91
2019-05-12T01:40:28.235Z,8.93
2019-05-12T01:42:54.685Z,8.97
2019-05-12T01:45:21.679Z,8.81
2019-05-12T01:47:48.736Z,8.73
2019-05-12T01:50:17.754Z,8.66
2019-05-12T01:52:44.668Z,8.80
2019-05-12T01:55:11.808Z,8.91
2019-05-12T01:57:38.943Z,8.87
2019-05-12T02:00:27.924Z,8.79
2019-05-12T02:02:54.432Z,8.88
2019-05-12T02:05:21.466Z,8.88
2019-05-12T02:07:53.358Z,8.92
2019-05-12T02:10:20.569Z,8.90
2019-05-12T02:12:49.092Z,8.87
2019-05-12T02:15:18.537Z,8.87
2019-05-12T02:17:47.962Z,8.68
2019-05-12T02:20:15.315Z,8.71
2019-05-12T02:22:42.390Z,8.71
2019-05-12T02:25:10.403Z,8.68
2019-05-12T02:27:38.304Z,8.72
2019-05-12T02:30:09.687Z,8.78
2019-05-12T02:32:48.114Z,8.72
2019-05-12T02:35:06.260Z,8.83
2019-05-12T02:37:35.758Z,8.87
2019-05-12T02:40:04.718Z,8.93
2019-05-12T02:42:34.209Z,8.91
2019-05-12T02:45:00.304Z,8.87
2019-05-12T02:47:27.320Z,8.86
2019-05-12T02:49:54.569Z,8.88
2019-05-12T02:52:24.979Z,8.68
2019-05-12T02:54:56.913Z,8.68
2019-05-12T02:57:25.243Z,8.83
2019-05-12T02:59:54.046Z,8.86
2019-05-12T03:02:24.647Z,8.84
2019-05-12T03:04:54.756Z,8.90
2019-05-12T03:07:25.399Z,8.91
2019-05-12T03:10:14.928Z,8.87
2019-05-12T03:12:44.960Z,8.81
2019-05-12T03:15:14.839Z,8.85
2019-05-12T03:17:39.992Z,8.73
2019-05-12T03:20:07.121Z,8.72
2019-05-12T03:22:35.378Z,8.74
2019-05-12T03:25:11.368Z,8.78
2019-05-12T03:27:34.879Z,8.79
2019-05-12T03:30:00.673Z,8.79
2019-05-12T03:32:28.385Z,8.88
2019-05-12T03:34:57.985Z,8.81
2019-05-12T03:37:30.720Z,8.81
2019-05-12T03:39:54.540Z,8.81
2019-05-12T03:42:24.835Z,8.93
2019-05-12T03:44:50.578Z,8.85
2019-05-12T03:47:17.626Z,8.80
2019-05-12T03:49:45.446Z,8.87
2019-05-12T03:52:15.296Z,8.87
2019-05-12T03:54:44.967Z,8.91
2019-05-12T03:57:10.673Z,8.80
2019-05-12T03:59:37.726Z,8.80
2019-05-12T04:02:06.855Z,8.84
2019-05-12T04:04:34.770Z,8.87
2019-05-12T04:07:05.048Z,8.97
2019-05-12T04:09:31.073Z,8.85
2019-05-12T04:11:59.922Z,8.95
2019-05-12T04:14:26.933Z,8.96
2019-05-12T04:16:55.094Z,9.14
2019-05-12T04:19:24.778Z,9.16
2019-05-12T04:21:54.580Z,9.13
2019-05-12T04:24:20.146Z,9.18
2019-05-12T04:26:47.217Z,9.19
2019-05-12T04:29:15.505Z,9.19
2019-05-12T04:31:44.232Z,9.12
2019-05-12T04:34:15.646Z,9.20
2019-05-12T04:36:40.434Z,9.20
2019-05-12T04:39:07.720Z,9.34
2019-05-12T04:41:35.595Z,9.28
2019-05-12T04:44:05.861Z,9.35
2019-05-12T04:46:34.687Z,9.46
2019-05-12T04:49:04.979Z,9.59
2019-05-12T04:51:30.839Z,9.50
2019-05-12T04:53:57.880Z,9.52
2019-05-12T04:56:25.252Z,9.63
2019-05-12T04:58:54.611Z,9.63
2019-05-12T05:01:25.006Z,9.81
2019-05-12T05:03:50.949Z,9.93
2019-05-12T05:06:17.965Z,9.96
2019-05-12T05:08:45.008Z,9.88
2019-05-12T05:11:14.658Z,10.02
2019-05-12T05:13:41.014Z,10.38
2019-05-12T05:16:08.068Z,10.60
2019-05-12T05:18:35.096Z,10.60
2019-05-12T05:21:04.538Z,10.56
2019-05-12T05:23:33.385Z,10.64
2019-05-12T05:26:00.026Z,11.01
2019-05-12T05:28:27.099Z,11.39
2019-05-12T05:30:54.115Z,11.59
2019-05-12T05:33:23.632Z,11.82
2019-05-12T05:35:50.086Z,11.97
2019-05-12T05:38:20.695Z,12.10
2019-05-12T05:40:46.027Z,12.36
2019-05-12T05:43:18.242Z,12.48
2019-05-12T05:45:43.854Z,12.54
2019-05-12T05:48:13.389Z,12.81
2019-05-12T05:50:39.932Z,13.28
2019-05-12T05:53:09.202Z,13.54
2019-05-12T05:55:35.902Z,13.83
2019-05-12T05:58:07.853Z,13.74
2019-05-12T06:00:34.091Z,13.67
2019-05-12T06:03:00.817Z,13.32
2019-05-12T06:05:30.801Z,13.27
2019-05-12T06:07:56.774Z,13.49
2019-05-12T06:10:34.812Z,13.55
2019-05-12T06:12:54.262Z,13.75
2019-05-12T06:15:23.437Z,13.52
2019-05-12T06:17:50.395Z,13.27
2019-05-12T06:20:17.429Z,13.21
2019-05-12T06:22:48.577Z,13.34
2019-05-12T06:25:16.123Z,13.43
2019-05-12T06:27:44.309Z,13.46
2019-05-12T06:30:14.552Z,13.09
2019-05-12T06:32:41.194Z,13.25
2019-05-12T06:35:09.497Z,13.16
2019-05-12T06:37:36.552Z,13.35
2019-05-12T06:40:03.765Z,13.36
2019-05-12T06:42:30.762Z,13.55
2019-05-12T06:44:58.293Z,13.56
2019-05-12T06:47:25.546Z,13.65
2019-05-12T06:49:54.780Z,13.65
2019-05-12T06:52:23.621Z,13.57
2019-05-12T06:54:54.698Z,13.72
2019-05-12T06:57:25.070Z,13.96
2019-05-12T06:59:51.434Z,14.04
2019-05-12T07:02:17.298Z,14.37
2019-05-12T07:04:49.750Z,14.60
2019-05-12T07:07:14.287Z,14.57
2019-05-12T07:09:51.940Z,14.35
2019-05-12T07:12:10.366Z,14.42
2019-05-12T07:14:37.427Z,14.19
2019-05-12T07:17:14.507Z,14.37
2019-05-12T07:19:43.602Z,14.27
2019-05-12T07:22:19.908Z,14.44
2019-05-12T07:24:40.953Z,14.50
2019-05-12T07:27:09.325Z,14.49
2019-05-12T07:29:36.505Z,14.18
2019-05-12T07:32:07.250Z,13.93
2019-05-12T07:34:33.399Z,13.97
2019-05-12T07:37:01.450Z,14.19
2019-05-12T07:39:29.761Z,14.31
2019-05-12T07:41:59.105Z,14.39
2019-05-12T07:44:32.108Z,14.50
2019-05-12T07:46:57.544Z,14.82
2019-05-12T07:49:34.290Z,14.83
2019-05-12T07:51:54.214Z,14.31
2019-05-12T07:54:23.523Z,14.12
2019-05-12T07:56:50.365Z,14.35
2019-05-12T07:59:17.406Z,14.39
2019-05-12T08:01:51.680Z,14.16
2019-05-12T08:04:13.560Z,13.96
2019-05-12T08:06:44.508Z,14.06
2019-05-12T08:09:09.515Z,13.86
2019-05-12T08:11:38.640Z,13.96
2019-05-12T08:14:05.542Z,13.59
2019-05-12T08:16:36.792Z,13.65
2019-05-12T08:19:03.755Z,14.02
2019-05-12T08:21:34.888Z,14.37
2019-05-12T08:23:59.353Z,14.47
2019-05-12T08:26:26.377Z,14.77
2019-05-12T08:28:53.666Z,14.73
2019-05-12T08:31:23.537Z,14.74
2019-05-12T08:33:49.574Z,15.02
2019-05-12T08:36:16.671Z,14.52
2019-05-12T08:38:44.431Z,14.26
2019-05-12T08:41:11.652Z,14.14
2019-05-12T08:43:40.449Z,14.27
2019-05-12T08:46:12.201Z,14.47
2019-05-12T08:48:36.539Z,14.48
2019-05-12T08:51:05.266Z,14.26
2019-05-12T08:53:33.642Z,14.25
2019-05-12T08:56:06.643Z,14.39
2019-05-12T08:58:34.188Z,14.23
2019-05-12T09:00:58.669Z,14.11
2019-05-12T09:03:30.324Z,14.32
2019-05-12T09:05:54.640Z,14.44
2019-05-12T09:08:24.125Z,14.56
2019-05-12T09:10:54.705Z,14.31
2019-05-12T09:13:19.746Z,14.74
2019-05-12T09:15:46.761Z,14.85
2019-05-12T09:18:14.440Z,14.81
2019-05-12T09:20:48.938Z,14.34
2019-05-12T09:23:10.666Z,14.47
2019-05-12T09:25:39.328Z,14.53
2019-05-12T09:28:06.874Z,14.58
2019-05-12T09:30:34.007Z,14.37
2019-05-12T09:33:01.047Z,14.26
2019-05-12T09:35:28.618Z,14.04
2019-05-12T09:37:57.099Z,14.37
2019-05-12T09:40:24.754Z,14.59
2019-05-12T09:42:53.317Z,13.98
2019-05-12T09:45:20.467Z,13.80
2019-05-12T09:47:47.645Z,14.12
2019-05-12T09:50:20.135Z,14.03
2019-05-12T09:52:44.164Z,14.28
2019-05-12T09:55:11.303Z,14.12
2019-05-12T09:57:40.770Z,14.34
2019-05-12T10:00:07.683Z,13.79
2019-05-12T10:02:34.703Z,13.98
2019-05-12T10:05:03.951Z,14.20
2019-05-12T10:07:30.757Z,14.41
2019-05-12T10:09:59.169Z,14.24
2019-05-12T10:12:29.519Z,14.38
2019-05-12T10:14:55.306Z,14.31
2019-05-12T10:17:26.277Z,14.23
2019-05-12T10:19:56.213Z,14.36
2019-05-12T10:22:23.527Z,14.23
2019-05-12T10:24:55.910Z,14.17
2019-05-12T10:27:21.241Z,14.21
2019-05-12T10:29:48.472Z,14.27
2019-05-12T10:32:15.488Z,13.90
2019-05-12T10:34:44.376Z,13.97
2019-05-12T10:37:13.388Z,13.87
2019-05-12T10:39:40.430Z,14.04
2019-05-12T10:42:07.478Z,14.02
2019-05-12T10:44:39.192Z,14.27
2019-05-12T10:47:05.113Z,14.11
2019-05-12T10:49:33.739Z,14.11
2019-05-12T10:52:00.905Z,14.07
2019-05-12T10:54:27.906Z,14.09
2019-05-12T10:56:54.960Z,13.99
2019-05-12T10:59:32.413Z,14.14
2019-05-12T11:01:50.930Z,14.44
2019-05-12T11:04:23.367Z,14.36
2019-05-12T11:06:48.491Z,14.21
2019-05-12T11:09:15.753Z,14.00
2019-05-12T11:11:46.769Z,13.76
2019-05-12T11:14:11.717Z,13.96
2019-05-12T11:16:42.528Z,13.45
2019-05-12T11:19:10.604Z,13.56
2019-05-12T11:21:37.800Z,13.91
2019-05-12T11:24:04.817Z,13.88
2019-05-12T11:26:31.861Z,13.66
2019-05-12T11:28:58.910Z,13.39
2019-05-12T11:31:25.919Z,13.66
2019-05-12T11:33:54.131Z,13.73
2019-05-12T11:36:24.098Z,13.80
2019-05-12T11:38:53.228Z,13.48
2019-05-12T11:41:20.521Z,13.52
2019-05-12T11:43:47.587Z,13.94
2019-05-12T11:46:14.587Z,14.01
2019-05-12T11:48:46.408Z,14.00
2019-05-12T11:51:10.552Z,13.94
2019-05-12T11:53:37.572Z,14.10
2019-05-12T11:56:07.573Z,13.90
2019-05-12T11:58:33.673Z,14.09
2019-05-12T12:01:06.321Z,14.04
2019-05-12T12:03:33.571Z,14.28
2019-05-12T12:06:00.449Z,14.14
2019-05-12T12:08:35.723Z,13.90
2019-05-12T12:10:56.603Z,13.89
2019-05-12T12:13:28.386Z,14.02
2019-05-12T12:15:52.619Z,14.09
2019-05-12T12:18:19.659Z,14.10
2019-05-12T12:20:46.870Z,14.20
2019-05-12T12:23:14.193Z,13.97
2019-05-12T12:25:43.133Z,13.82
2019-05-12T12:28:13.489Z,14.18
2019-05-12T12:30:40.112Z,14.25
2019-05-12T12:33:07.131Z,14.31
2019-05-12T12:35:34.801Z,14.32
2019-05-12T12:38:03.532Z,14.27
2019-05-12T12:40:30.858Z,14.31
2019-05-12T12:42:57.910Z,14.19
2019-05-12T12:45:50.646Z,14.48
2019-05-12T12:48:19.457Z,14.47
2019-05-12T12:50:46.562Z,14.54
2019-05-12T12:53:13.695Z,14.35
2019-05-12T12:55:43.443Z,14.26
2019-05-12T12:58:09.623Z,14.69
2019-05-12T13:00:46.634Z,14.02
2019-05-12T13:03:05.604Z,14.12
2019-05-12T13:05:34.509Z,14.10
2019-05-12T13:08:04.080Z,13.82
2019-05-12T13:10:30.494Z,13.89
2019-05-12T13:13:00.936Z,14.00
2019-05-12T13:15:26.504Z,14.14
2019-05-12T13:17:53.528Z,14.32
2019-05-12T13:20:23.663Z,14.47
2019-05-12T13:22:50.241Z,14.41
2019-05-12T13:25:17.257Z,14.33
2019-05-12T13:27:44.308Z,14.25
2019-05-12T13:30:18.598Z,14.26
2019-05-12T13:32:40.444Z,14.21
2019-05-12T13:35:14.729Z,14.19
2019-05-12T13:37:36.869Z,14.27
2019-05-12T13:40:04.268Z,14.08
2019-05-12T13:42:35.759Z,13.81
2019-05-12T13:45:00.204Z,13.88
2019-05-12T13:47:32.405Z,13.93
2019-05-12T13:49:56.183Z,13.73
2019-05-12T13:52:26.383Z,13.90
2019-05-12T13:54:52.142Z,13.85
2019-05-12T13:57:19.550Z,13.73
2019-05-12T13:59:46.591Z,13.29
2019-05-12T14:02:21.815Z,13.42
2019-05-12T14:04:44.355Z,13.44
2019-05-12T14:07:17.784Z,13.48
2019-05-12T14:09:40.384Z,13.35
2019-05-12T14:12:07.380Z,13.11
2019-05-12T14:14:34.442Z,13.15
2019-05-12T14:17:03.931Z,13.13
2019-05-12T14:19:35.413Z,13.06
2019-05-12T14:21:59.364Z,12.89
2019-05-12T14:24:26.403Z,12.90
2019-05-12T14:26:53.593Z,13.01
2019-05-12T14:29:25.763Z,13.04
2019-05-12T14:31:54.504Z,13.27
2019-05-12T14:34:20.761Z,13.02
2019-05-12T14:36:47.410Z,12.99
2019-05-12T14:39:14.514Z,13.11
2019-05-12T14:41:44.567Z,13.11
2019-05-12T14:44:10.547Z,12.99
2019-05-12T14:46:40.075Z,13.22
2019-05-12T14:49:06.485Z,13.06
2019-05-12T14:51:33.555Z,13.25
2019-05-12T14:54:00.542Z,13.40
2019-05-12T14:56:27.552Z,13.49
2019-05-12T14:58:56.612Z,13.44
2019-05-12T15:01:23.896Z,13.38
2019-05-12T15:03:53.509Z,13.67
2019-05-12T15:06:25.703Z,13.71
2019-05-12T15:08:49.688Z,13.76
2019-05-12T15:11:16.713Z,13.36
2019-05-12T15:13:43.799Z,13.17
2019-05-12T15:16:10.842Z,12.93
2019-05-12T15:18:39.440Z,13.04
2019-05-12T15:21:06.777Z,13.18
2019-05-12T15:23:37.251Z,13.10
2019-05-12T15:26:04.351Z,13.04
2019-05-12T15:28:33.708Z,13.02
2019-05-12T15:31:00.757Z,13.08
2019-05-12T15:33:27.823Z,13.13
2019-05-12T15:35:54.961Z,13.18
2019-05-12T15:38:23.933Z,13.25
2019-05-12T15:40:50.896Z,13.35
2019-05-12T15:43:17.915Z,13.32
2019-05-12T15:45:49.001Z,13.17
2019-05-12T15:48:14.521Z,13.18
2019-05-12T15:50:45.429Z,13.25
2019-05-12T15:53:13.726Z,13.12
2019-05-12T15:55:39.535Z,13.27
2019-05-12T15:58:06.547Z,12.92
2019-05-12T16:00:34.419Z,13.05
2019-05-12T16:03:01.516Z,12.90
2019-05-12T16:05:30.937Z,12.89
2019-05-12T16:07:57.450Z,13.02
2019-05-12T16:10:24.500Z,12.84
2019-05-12T16:12:51.564Z,12.80
2019-05-12T16:15:19.418Z,12.55
2019-05-12T16:17:46.626Z,12.72
2019-05-12T16:20:14.364Z,12.59
2019-05-12T16:22:44.908Z,12.49
2019-05-12T16:25:10.871Z,12.63
2019-05-12T16:27:37.874Z,12.66
2019-05-12T16:30:05.721Z,12.67
2019-05-12T16:32:42.438Z,12.83
2019-05-12T16:35:05.083Z,12.97
2019-05-12T16:37:31.472Z,12.74
2019-05-12T16:39:59.541Z,12.80
2019-05-12T16:42:27.448Z,12.69
2019-05-12T16:44:56.233Z,12.48
2019-05-12T16:47:25.071Z,12.56
2019-05-12T16:49:53.440Z,12.60
2019-05-12T16:52:20.573Z,12.51
2019-05-12T16:54:47.588Z,12.47
2019-05-12T16:57:18.113Z,12.39
2019-05-12T16:59:43.894Z,12.43
2019-05-12T17:02:10.914Z,12.21
2019-05-12T17:04:37.937Z,11.99
2019-05-12T17:07:09.917Z,11.96
2019-05-12T17:09:33.891Z,12.06
2019-05-12T17:12:00.920Z,11.99
2019-05-12T17:14:28.820Z,11.91
2019-05-12T17:16:55.954Z,11.81
2019-05-12T17:19:23.633Z,11.79
2019-05-12T17:21:55.502Z,11.66
2019-05-12T17:24:19.889Z,11.86
2019-05-12T17:26:46.915Z,12.05
2019-05-12T17:29:15.125Z,11.97
2019-05-12T17:31:44.255Z,11.84
2019-05-12T17:34:11.102Z,11.86
2019-05-12T17:36:38.093Z,12.08
2019-05-12T17:39:06.430Z,11.72
2019-05-12T17:41:40.270Z,12.07
2019-05-12T17:44:04.322Z,11.99
2019-05-12T17:46:32.421Z,11.90
2019-05-12T17:49:00.410Z,11.74
2019-05-12T17:51:30.859Z,11.79
2019-05-12T17:53:56.385Z,11.87
2019-05-12T17:56:25.197Z,11.95
2019-05-12T17:58:52.378Z,12.08
2019-05-12T18:01:23.099Z,11.87
2019-05-12T18:03:50.457Z,11.85
2019-05-12T18:06:20.286Z,11.71
2019-05-12T18:08:46.251Z,11.74
2019-05-12T18:11:15.960Z,11.63
2019-05-12T18:13:42.275Z,11.73
2019-05-12T18:16:11.608Z,11.43
2019-05-12T18:18:38.525Z,11.41
2019-05-12T18:21:05.673Z,11.56
2019-05-12T18:23:34.417Z,11.44
2019-05-12T18:26:03.019Z,11.36
2019-05-12T18:28:30.650Z,11.28
2019-05-12T18:30:57.699Z,11.40
2019-05-12T18:33:33.366Z,11.11
2019-05-12T18:35:54.413Z,11.33
2019-05-12T18:38:26.183Z,11.26
2019-05-12T18:40:50.662Z,11.44
2019-05-12T18:43:17.670Z,11.28
2019-05-12T18:45:48.820Z,10.96
2019-05-12T18:48:17.876Z,11.03
2019-05-12T18:50:44.169Z,10.88
2019-05-12T18:53:14.926Z,10.93
2019-05-12T18:55:40.593Z,11.06
2019-05-12T18:58:07.615Z,11.07
2019-05-12T19:00:34.788Z,11.19
2019-05-12T19:03:06.137Z,11.19
2019-05-12T19:05:31.120Z,11.05
2019-05-12T19:07:58.169Z,10.83
2019-05-12T19:10:25.331Z,10.79
2019-05-12T19:13:01.020Z,10.62
2019-05-12T19:15:22.073Z,10.81
2019-05-12T19:17:49.427Z,10.84
2019-05-12T19:20:19.564Z,10.80
2019-05-12T19:22:56.146Z,10.72
2019-05-12T19:25:14.997Z,10.72
2019-05-12T19:27:45.764Z,10.85
2019-05-12T19:30:13.812Z,10.68
2019-05-12T19:32:40.657Z,10.42
2019-05-12T19:35:09.521Z,10.69
2019-05-12T19:37:36.624Z,10.89
2019-05-12T19:40:12.519Z,10.98
2019-05-12T19:42:33.095Z,10.70
2019-05-12T19:45:00.386Z,10.79
2019-05-12T19:47:33.822Z,10.67
2019-05-12T19:49:59.441Z,10.69
2019-05-12T19:52:26.922Z,10.77
2019-05-12T19:54:54.045Z,10.78
2019-05-12T19:57:23.462Z,10.74
2019-05-12T19:59:52.352Z,10.74
2019-05-12T20:02:19.496Z,10.89
2019-05-12T20:04:51.862Z,10.88
2019-05-12T20:07:18.562Z,10.70
2019-05-12T20:09:55.062Z,10.85
2019-05-12T20:12:18.799Z,10.83
2019-05-12T20:14:43.730Z,10.90
2019-05-12T20:17:10.764Z,10.96
2019-05-12T20:19:37.994Z,10.86
2019-05-12T20:22:05.046Z,10.79
2019-05-12T20:24:32.088Z,10.79
2019-05-12T20:26:59.154Z,10.81
2019-05-12T20:29:33.461Z,10.55
2019-05-12T20:31:55.156Z,10.59
2019-05-12T20:34:24.421Z,10.46
2019-05-12T20:36:53.526Z,10.31
2019-05-12T20:39:22.367Z,10.30
2019-05-12T20:41:48.990Z,10.12
2019-05-12T20:44:19.922Z,10.22
2019-05-12T20:46:45.276Z,10.22
2019-05-12T20:49:14.860Z,10.26
2019-05-12T20:51:41.277Z,10.19
2019-05-12T20:54:16.123Z,10.20
2019-05-12T20:56:37.221Z,10.07
2019-05-12T20:59:04.375Z,10.17
2019-05-12T21:01:33.489Z,10.22
2019-05-12T21:04:00.383Z,10.28
2019-05-12T21:06:32.321Z,10.28
2019-05-12T21:08:56.812Z,10.39
2019-05-12T21:11:24.612Z,10.24
2019-05-12T21:13:54.391Z,10.24
2019-05-12T21:16:30.842Z,10.18
2019-05-12T21:18:56.323Z,10.19
2019-05-12T21:21:18.793Z,10.17
2019-05-12T21:23:53.743Z,10.16
2019-05-12T21:26:14.775Z,10.24
2019-05-12T21:28:46.118Z,10.17
2019-05-12T21:31:10.798Z,10.01
2019-05-12T21:33:41.608Z,10.01
2019-05-12T21:36:06.805Z,10.00
2019-05-12T21:38:34.144Z,9.94
2019-05-12T21:41:02.194Z,9.85
2019-05-12T21:43:32.473Z,9.86
2019-05-12T21:46:01.031Z,9.93
2019-05-12T21:48:29.285Z,9.94
2019-05-12T21:50:56.564Z,9.87
2019-05-12T21:53:23.961Z,9.87
2019-05-12T21:55:57.710Z,9.83
2019-05-12T21:58:20.080Z,9.83
2019-05-12T22:01:00.049Z,10.02
2019-05-12T22:03:19.919Z,10.02
2019-05-12T22:05:51.489Z,10.00
2019-05-12T22:08:22.039Z,9.95
2019-05-12T22:10:47.027Z,9.86
2019-05-12T22:13:17.073Z,9.72
2019-05-12T22:15:43.071Z,9.71
2019-05-12T22:18:10.141Z,9.73
2019-05-12T22:20:37.196Z,9.41
2019-05-12T22:23:11.978Z,9.51
2019-05-12T22:25:34.470Z,9.50
2019-05-12T22:28:05.395Z,9.71
2019-05-12T22:30:31.538Z,9.76
2019-05-12T22:32:59.568Z,9.76
2019-05-12T22:35:27.643Z,9.64
2019-05-12T22:37:54.671Z,9.60
2019-05-12T22:40:23.567Z,9.55
2019-05-12T22:42:56.134Z,9.60
2019-05-12T22:45:19.631Z,9.47
2019-05-12T22:47:49.230Z,9.42
2019-05-12T22:50:15.584Z,9.41
2019-05-12T22:52:49.332Z,9.41
2019-05-12T22:55:14.810Z,9.43
2019-05-12T22:57:43.557Z,9.43
2019-05-12T23:00:13.377Z,9.49
2019-05-12T23:02:40.130Z,9.52
2019-05-12T23:05:10.299Z,9.47
2019-05-12T23:07:36.173Z,9.47
2019-05-12T23:10:06.931Z,9.38
2019-05-12T23:12:34.312Z,9.35
2019-05-12T23:15:06.340Z,9.36
2019-05-12T23:17:30.533Z,9.43
2019-05-12T23:19:57.536Z,9.44
2019-05-12T23:22:29.532Z,9.47
2019-05-12T23:24:54.726Z,9.49
2019-05-12T23:27:28.163Z,9.38
2019-05-12T23:29:50.804Z,9.42
2019-05-12T23:32:17.828Z,9.33
2019-05-12T23:34:53.070Z,9.18
2019-05-12T23:37:14.242Z,9.18
2019-05-12T23:39:41.375Z,9.27
2019-05-12T23:42:08.520Z,9.27
2019-05-12T23:44:35.597Z,9.20
2019-05-12T23:47:04.337Z,8.98
2019-05-12T23:49:33.730Z,8.85
2019-05-12T23:52:00.554Z,8.96
2019-05-12T23:54:27.566Z,9.08
2019-05-12T23:56:54.594Z,9.12
2019-05-12T23:59:23.846Z,9.08
